Malden, MO (63863)

10:44 PM CDT on July 01, 2015 (GMT -0500)
Peach Orchard | | Change Station
CLOSE
Current Station
Personal Weather Station
Location: Gideon, MO
Elevation: 263 ft
Nearby Weather Stations

Elev 263 ft 36.37 °N, 89.94 °W | Updated 3 minutes ago

Clear
Clear
79.8 °F
Feels Like 84 °F
N
5.0
Wind Variable Wind from SSW
Gusts 5.0 mph

Today
High -- | Low -- °F
--% Chance of Precip.
Yesterday
High -- | Low -- °F
Precip. -- in
5:45 AM 8:22 PM
Full, 100% visible
Pressure 29.87 in
Visibility 10.0 miles
Clouds Clear
Heat Index 84 °F
Dew Point 74 °F
Humidity 84%
Rainfall 0.02 in
Snow Depth Not available.
UV 0 out of 12
Pollen .40 out of 12
Air Quality Not available.
Flu Activity Not available.
METAR K4M9 020315Z AUTO 20010KT 10SM CLR 27/24 A2987 RMK AO2

More Conditions Fewer Conditions

Pressure 29.87 in
Visibility 10.0 miles
Clouds Clear
Heat Index 84 °F
Dew Point 74 °F
Humidity 84%
Rainfall 0.02 in
Snow Depth Not available.
UV 0 out of 12
Pollen .40 out of 12
Air Quality Not available.
Flu Activity Not available.
METAR K4M9 020315Z AUTO 20010KT 10SM CLR 27/24 A2987 RMK AO2

More Conditions Fewer Conditions

10-Day Weather Forecast

×

Almanac

Astronomy

Jul. 01, 2015 Rise Set
Actual Time
Civil Twilight
Nautical Twilight
Astronomical Twilight
Moon
Length of Visible Light
Length of Day
Tomorrow will be .
, % of the Moon is Illuminated

Today's Extremes

State Highs State Lows

Community

WunderPhotos

Upload Photos

1,834,395 photos uploaded!

WunderBlogs® & News

Nearby

Air Quality

  Air Quality AQ Index Pollutant
Not available.

Snow Depth

Station Depth Elevation

Earthquake Activity

City Distance Mag. Time & Date
Minimum magnitude displayed is 2.5.

Coastal Water Temperatures

Place Temperature

Stations

Nearby Weather Stations

Station Location Temp. Windchill Dew Point Humidity Wind Precip. Elev Updated Type